sensor_id;sensor_type;location;lat;lon;timestamp;temperature;humidity
6018;DHT22;3037;51.068;13.780;2023-09-18T00:02:08;19.00;1.00
6018;DHT22;3037;51.068;13.780;2023-09-18T00:04:34;18.90;1.00
6018;DHT22;3037;51.068;13.780;2023-09-18T00:06:59;18.80;1.00
6018;DHT22;3037;51.068;13.780;2023-09-18T00:09:25;18.70;1.00
6018;DHT22;3037;51.068;13.780;2023-09-18T00:11:50;18.70;1.00
6018;DHT22;3037;51.068;13.780;2023-09-18T00:14:18;18.60;18.60
6018;DHT22;3037;51.068;13.780;2023-09-18T00:16:43;18.70;99.90
6018;DHT22;3037;51.068;13.780;2023-09-18T00:19:09;18.60;99.90
6018;DHT22;3037;51.068;13.780;2023-09-18T00:21:36;18.70;1.00
6018;DHT22;3037;51.068;13.780;2023-09-18T00:24:02;18.60;1.00
6018;DHT22;3037;51.068;13.780;2023-09-18T00:26:28;18.50;1.00
6018;DHT22;3037;51.068;13.780;2023-09-18T00:28:53;18.40;1.00
6018;DHT22;3037;51.068;13.780;2023-09-18T00:31:19;18.40;1.00
6018;DHT22;3037;51.068;13.780;2023-09-18T00:33:45;18.50;1.40
6018;DHT22;3037;51.068;13.780;2023-09-18T00:36:10;18.50;99.90
6018;DHT22;3037;51.068;13.780;2023-09-18T00:38:36;18.50;99.90
6018;DHT22;3037;51.068;13.780;2023-09-18T00:41:01;18.60;1.00
6018;DHT22;3037;51.068;13.780;2023-09-18T00:43:27;18.70;1.00
6018;DHT22;3037;51.068;13.780;2023-09-18T00:45:53;18.70;1.00
6018;DHT22;3037;51.068;13.780;2023-09-18T00:48:19;18.70;1.00
6018;DHT22;3037;51.068;13.780;2023-09-18T00:50:45;18.70;1.00
6018;DHT22;3037;51.068;13.780;2023-09-18T00:53:14;18.90;1.00
6018;DHT22;3037;51.068;13.780;2023-09-18T00:55:40;18.80;1.00
6018;DHT22;3037;51.068;13.780;2023-09-18T00:58:06;18.80;1.00
6018;DHT22;3037;51.068;13.780;2023-09-18T01:00:32;18.80;1.00
6018;DHT22;3037;51.068;13.780;2023-09-18T01:02:58;18.70;1.00
6018;DHT22;3037;51.068;13.780;2023-09-18T01:05:23;18.90;1.00
6018;DHT22;3037;51.068;13.780;2023-09-18T01:07:49;18.90;1.00
6018;DHT22;3037;51.068;13.780;2023-09-18T01:10:15;18.80;1.00
6018;DHT22;3037;51.068;13.780;2023-09-18T01:12:48;18.80;1.00
6018;DHT22;3037;51.068;13.780;2023-09-18T01:15:22;18.80;1.00
6018;DHT22;3037;51.068;13.780;2023-09-18T01:17:48;18.90;1.00
6018;DHT22;3037;51.068;13.780;2023-09-18T01:20:15;19.00;99.90
6018;DHT22;3037;51.068;13.780;2023-09-18T01:22:40;19.10;99.90
6018;DHT22;3037;51.068;13.780;2023-09-18T01:25:06;19.10;99.90
6018;DHT22;3037;51.068;13.780;2023-09-18T01:27:32;19.20;99.90
6018;DHT22;3037;51.068;13.780;2023-09-18T01:29:58;19.20;99.90
6018;DHT22;3037;51.068;13.780;2023-09-18T01:32:25;19.30;99.90
6018;DHT22;3037;51.068;13.780;2023-09-18T01:34:54;19.20;99.90
6018;DHT22;3037;51.068;13.780;2023-09-18T01:37:25;19.30;99.90
6018;DHT22;3037;51.068;13.780;2023-09-18T01:39:52;19.30;1.00
6018;DHT22;3037;51.068;13.780;2023-09-18T01:42:19;19.30;18.00
6018;DHT22;3037;51.068;13.780;2023-09-18T01:44:46;19.30;1.00
6018;DHT22;3037;51.068;13.780;2023-09-18T01:47:16;19.20;1.00
6018;DHT22;3037;51.068;13.780;2023-09-18T01:49:42;19.20;1.20
6018;DHT22;3037;51.068;13.780;2023-09-18T01:52:09;19.20;3.10
6018;DHT22;3037;51.068;13.780;2023-09-18T01:54:35;19.10;1.00
6018;DHT22;3037;51.068;13.780;2023-09-18T01:57:02;19.00;99.90
6018;DHT22;3037;51.068;13.780;2023-09-18T01:59:28;18.80;99.90
6018;DHT22;3037;51.068;13.780;2023-09-18T02:01:53;18.80;1.00
6018;DHT22;3037;51.068;13.780;2023-09-18T02:04:20;18.90;1.00
6018;DHT22;3037;51.068;13.780;2023-09-18T02:06:47;18.80;1.00
6018;DHT22;3037;51.068;13.780;2023-09-18T02:09:12;18.90;1.00
6018;DHT22;3037;51.068;13.780;2023-09-18T02:11:40;18.90;1.00
6018;DHT22;3037;51.068;13.780;2023-09-18T02:14:06;19.00;1.00
6018;DHT22;3037;51.068;13.780;2023-09-18T02:16:36;18.90;1.00
6018;DHT22;3037;51.068;13.780;2023-09-18T02:19:03;18.80;62.40
6018;DHT22;3037;51.068;13.780;2023-09-18T02:21:29;18.70;99.90
6018;DHT22;3037;51.068;13.780;2023-09-18T02:23:55;18.70;99.90
6018;DHT22;3037;51.068;13.780;2023-09-18T02:26:22;18.80;99.90
6018;DHT22;3037;51.068;13.780;2023-09-18T02:28:48;18.80;1.00
6018;DHT22;3037;51.068;13.780;2023-09-18T02:31:14;18.90;1.00
6018;DHT22;3037;51.068;13.780;2023-09-18T02:33:40;19.00;1.00
6018;DHT22;3037;51.068;13.780;2023-09-18T02:36:06;18.90;1.00
6018;DHT22;3037;51.068;13.780;2023-09-18T02:38:32;18.90;1.00
6018;DHT22;3037;51.068;13.780;2023-09-18T02:40:59;18.90;1.00
6018;DHT22;3037;51.068;13.780;2023-09-18T02:43:24;19.00;1.00
6018;DHT22;3037;51.068;13.780;2023-09-18T02:45:50;18.90;1.00
6018;DHT22;3037;51.068;13.780;2023-09-18T02:48:16;18.90;1.00
6018;DHT22;3037;51.068;13.780;2023-09-18T02:50:42;18.90;1.00
6018;DHT22;3037;51.068;13.780;2023-09-18T02:53:16;19.00;1.00
6018;DHT22;3037;51.068;13.780;2023-09-18T02:55:42;19.10;99.90
6018;DHT22;3037;51.068;13.780;2023-09-18T02:58:08;19.10;99.90
6018;DHT22;3037;51.068;13.780;2023-09-18T03:00:40;19.10;99.90
6018;DHT22;3037;51.068;13.780;2023-09-18T03:03:06;19.00;1.00
6018;DHT22;3037;51.068;13.780;2023-09-18T03:05:31;18.90;1.00
6018;DHT22;3037;51.068;13.780;2023-09-18T03:07:57;18.90;1.00
6018;DHT22;3037;51.068;13.780;2023-09-18T03:10:22;18.90;99.90
6018;DHT22;3037;51.068;13.780;2023-09-18T03:12:48;18.90;99.90
6018;DHT22;3037;51.068;13.780;2023-09-18T03:15:14;18.90;99.90
6018;DHT22;3037;51.068;13.780;2023-09-18T03:17:40;18.90;22.90
6018;DHT22;3037;51.068;13.780;2023-09-18T03:20:07;18.90;1.00
6018;DHT22;3037;51.068;13.780;2023-09-18T03:22:34;18.80;99.90
6018;DHT22;3037;51.068;13.780;2023-09-18T03:24:59;18.70;99.90
6018;DHT22;3037;51.068;13.780;2023-09-18T03:27:25;18.70;99.90
6018;DHT22;3037;51.068;13.780;2023-09-18T03:29:54;18.80;62.60
6018;DHT22;3037;51.068;13.780;2023-09-18T03:32:20;18.90;1.00
6018;DHT22;3037;51.068;13.780;2023-09-18T03:34:46;18.90;1.00
6018;DHT22;3037;51.068;13.780;2023-09-18T03:37:11;19.00;1.00
6018;DHT22;3037;51.068;13.780;2023-09-18T03:39:37;19.00;1.00
6018;DHT22;3037;51.068;13.780;2023-09-18T03:42:03;19.00;1.00
6018;DHT22;3037;51.068;13.780;2023-09-18T03:44:28;19.10;1.00
6018;DHT22;3037;51.068;13.780;2023-09-18T03:46:54;19.10;99.90
6018;DHT22;3037;51.068;13.780;2023-09-18T03:49:20;19.20;99.90
6018;DHT22;3037;51.068;13.780;2023-09-18T03:51:45;19.20;99.90
6018;DHT22;3037;51.068;13.780;2023-09-18T03:54:11;19.20;99.90
6018;DHT22;3037;51.068;13.780;2023-09-18T03:56:36;19.20;99.90
6018;DHT22;3037;51.068;13.780;2023-09-18T03:59:02;19.20;99.90
6018;DHT22;3037;51.068;13.780;2023-09-18T04:01:30;19.00;99.90
6018;DHT22;3037;51.068;13.780;2023-09-18T04:03:55;19.00;1.00
6018;DHT22;3037;51.068;13.780;2023-09-18T04:06:21;19.00;1.00
6018;DHT22;3037;51.068;13.780;2023-09-18T04:08:49;18.90;1.00
6018;DHT22;3037;51.068;13.780;2023-09-18T04:11:16;18.90;1.00
6018;DHT22;3037;51.068;13.780;2023-09-18T04:13:41;18.80;99.90
6018;DHT22;3037;51.068;13.780;2023-09-18T04:16:07;18.80;99.90
6018;DHT22;3037;51.068;13.780;2023-09-18T04:18:33;18.80;1.00
6018;DHT22;3037;51.068;13.780;2023-09-18T04:20:58;18.70;99.90
6018;DHT22;3037;51.068;13.780;2023-09-18T04:23:26;18.80;99.90
6018;DHT22;3037;51.068;13.780;2023-09-18T04:25:53;18.80;99.90
6018;DHT22;3037;51.068;13.780;2023-09-18T04:28:21;18.80;99.90
6018;DHT22;3037;51.068;13.780;2023-09-18T04:30:47;18.80;99.90
6018;DHT22;3037;51.068;13.780;2023-09-18T04:33:16;18.70;1.00
6018;DHT22;3037;51.068;13.780;2023-09-18T04:35:43;18.70;52.90
6018;DHT22;3037;51.068;13.780;2023-09-18T04:38:09;18.60;99.90
6018;DHT22;3037;51.068;13.780;2023-09-18T04:40:40;18.60;96.00
6018;DHT22;3037;51.068;13.780;2023-09-18T04:43:06;18.60;99.90
6018;DHT22;3037;51.068;13.780;2023-09-18T04:45:32;18.70;99.90
6018;DHT22;3037;51.068;13.780;2023-09-18T04:47:58;18.70;28.50
6018;DHT22;3037;51.068;13.780;2023-09-18T04:50:23;18.70;45.40
6018;DHT22;3037;51.068;13.780;2023-09-18T04:52:50;18.70;99.90
6018;DHT22;3037;51.068;13.780;2023-09-18T04:55:17;18.70;99.90
6018;DHT22;3037;51.068;13.780;2023-09-18T04:57:42;18.70;1.00
6018;DHT22;3037;51.068;13.780;2023-09-18T05:00:08;18.60;1.00
6018;DHT22;3037;51.068;13.780;2023-09-18T05:02:35;18.70;99.90
6018;DHT22;3037;51.068;13.780;2023-09-18T05:05:01;18.80;1.00
6018;DHT22;3037;51.068;13.780;2023-09-18T05:07:28;18.80;1.00
6018;DHT22;3037;51.068;13.780;2023-09-18T05:09:54;18.90;1.00
6018;DHT22;3037;51.068;13.780;2023-09-18T05:12:19;18.90;1.00
6018;DHT22;3037;51.068;13.780;2023-09-18T05:14:45;19.00;99.90
6018;DHT22;3037;51.068;13.780;2023-09-18T05:17:14;19.00;1.00
6018;DHT22;3037;51.068;13.780;2023-09-18T05:19:40;19.10;1.00
6018;DHT22;3037;51.068;13.780;2023-09-18T05:22:06;19.20;1.00
6018;DHT22;3037;51.068;13.780;2023-09-18T05:24:32;19.20;1.00
6018;DHT22;3037;51.068;13.780;2023-09-18T05:26:57;19.20;1.00
6018;DHT22;3037;51.068;13.780;2023-09-18T05:29:23;19.20;1.00
6018;DHT22;3037;51.068;13.780;2023-09-18T05:31:49;19.30;1.00
6018;DHT22;3037;51.068;13.780;2023-09-18T05:34:15;19.30;99.90
6018;DHT22;3037;51.068;13.780;2023-09-18T05:36:40;19.40;99.90
6018;DHT22;3037;51.068;13.780;2023-09-18T05:39:06;19.50;38.20
6018;DHT22;3037;51.068;13.780;2023-09-18T05:41:39;19.60;1.00
6018;DHT22;3037;51.068;13.780;2023-09-18T05:44:05;19.80;1.00
6018;DHT22;3037;51.068;13.780;2023-09-18T05:46:34;19.80;1.00
6018;DHT22;3037;51.068;13.780;2023-09-18T05:49:00;19.90;1.00
6018;DHT22;3037;51.068;13.780;2023-09-18T05:51:26;20.00;1.00
6018;DHT22;3037;51.068;13.780;2023-09-18T05:53:51;20.20;1.00
6018;DHT22;3037;51.068;13.780;2023-09-18T05:56:17;20.20;99.90
6018;DHT22;3037;51.068;13.780;2023-09-18T05:58:43;20.40;99.90
6018;DHT22;3037;51.068;13.780;2023-09-18T06:01:09;20.50;99.90
6018;DHT22;3037;51.068;13.780;2023-09-18T06:03:34;20.50;99.90
6018;DHT22;3037;51.068;13.780;2023-09-18T06:06:04;20.60;99.90
6018;DHT22;3037;51.068;13.780;2023-09-18T06:08:29;21.00;96.10
6018;DHT22;3037;51.068;13.780;2023-09-18T06:10:56;21.60;1.00
6018;DHT22;3037;51.068;13.780;2023-09-18T06:13:23;22.20;1.00
6018;DHT22;3037;51.068;13.780;2023-09-18T06:15:49;22.80;1.00
6018;DHT22;3037;51.068;13.780;2023-09-18T06:18:16;23.90;1.00
6018;DHT22;3037;51.068;13.780;2023-09-18T06:20:41;24.40;1.00
6018;DHT22;3037;51.068;13.780;2023-09-18T06:23:09;24.90;1.00
6018;DHT22;3037;51.068;13.780;2023-09-18T06:25:34;25.30;1.00
6018;DHT22;3037;51.068;13.780;2023-09-18T06:28:00;25.10;1.00
6018;DHT22;3037;51.068;13.780;2023-09-18T06:30:28;25.60;1.00
6018;DHT22;3037;51.068;13.780;2023-09-18T06:32:55;25.90;1.00
6018;DHT22;3037;51.068;13.780;2023-09-18T06:35:20;26.00;1.00
6018;DHT22;3037;51.068;13.780;2023-09-18T06:37:46;26.50;1.00
6018;DHT22;3037;51.068;13.780;2023-09-18T06:40:11;26.60;1.00
6018;DHT22;3037;51.068;13.780;2023-09-18T06:42:37;25.90;1.00
6018;DHT22;3037;51.068;13.780;2023-09-18T06:45:03;26.00;1.00
6018;DHT22;3037;51.068;13.780;2023-09-18T06:47:32;24.60;1.00
6018;DHT22;3037;51.068;13.780;2023-09-18T06:49:58;24.60;1.00
6018;DHT22;3037;51.068;13.780;2023-09-18T06:52:23;24.80;1.00
6018;DHT22;3037;51.068;13.780;2023-09-18T06:54:50;26.00;1.00
6018;DHT22;3037;51.068;13.780;2023-09-18T06:57:16;26.50;1.00
6018;DHT22;3037;51.068;13.780;2023-09-18T06:59:41;28.30;1.00
6018;DHT22;3037;51.068;13.780;2023-09-18T07:02:07;29.50;1.00
6018;DHT22;3037;51.068;13.780;2023-09-18T07:04:32;29.40;1.00
6018;DHT22;3037;51.068;13.780;2023-09-18T07:06:58;28.80;1.00
6018;DHT22;3037;51.068;13.780;2023-09-18T07:09:24;28.90;1.00
6018;DHT22;3037;51.068;13.780;2023-09-18T07:11:50;29.20;1.00
6018;DHT22;3037;51.068;13.780;2023-09-18T07:14:16;29.20;1.00
6018;DHT22;3037;51.068;13.780;2023-09-18T07:16:42;29.60;1.00
6018;DHT22;3037;51.068;13.780;2023-09-18T07:19:08;29.80;1.00
6018;DHT22;3037;51.068;13.780;2023-09-18T07:21:37;30.30;1.00
6018;DHT22;3037;51.068;13.780;2023-09-18T07:24:03;29.90;1.00
6018;DHT22;3037;51.068;13.780;2023-09-18T07:26:29;31.80;1.00
6018;DHT22;3037;51.068;13.780;2023-09-18T07:28:54;30.90;1.00
6018;DHT22;3037;51.068;13.780;2023-09-18T07:31:20;30.70;1.00
6018;DHT22;3037;51.068;13.780;2023-09-18T07:33:45;30.70;1.00
6018;DHT22;3037;51.068;13.780;2023-09-18T07:36:11;31.70;1.00
6018;DHT22;3037;51.068;13.780;2023-09-18T07:38:36;31.60;1.00
6018;DHT22;3037;51.068;13.780;2023-09-18T07:41:08;32.20;1.00
6018;DHT22;3037;51.068;13.780;2023-09-18T07:43:34;31.90;1.00
6018;DHT22;3037;51.068;13.780;2023-09-18T07:45:59;32.00;1.00
6018;DHT22;3037;51.068;13.780;2023-09-18T07:48:27;32.00;1.00
6018;DHT22;3037;51.068;13.780;2023-09-18T07:50:52;31.50;1.00
6018;DHT22;3037;51.068;13.780;2023-09-18T07:53:19;30.40;1.00
6018;DHT22;3037;51.068;13.780;2023-09-18T07:55:45;30.80;1.00
6018;DHT22;3037;51.068;13.780;2023-09-18T07:58:10;29.20;1.00
6018;DHT22;3037;51.068;13.780;2023-09-18T08:00:37;30.10;1.00
6018;DHT22;3037;51.068;13.780;2023-09-18T08:03:02;30.50;1.00
6018;DHT22;3037;51.068;13.780;2023-09-18T08:05:28;29.20;1.00
6018;DHT22;3037;51.068;13.780;2023-09-18T08:07:55;30.10;1.00
6018;DHT22;3037;51.068;13.780;2023-09-18T08:10:23;30.50;1.00
6018;DHT22;3037;51.068;13.780;2023-09-18T08:12:49;31.30;1.00
6018;DHT22;3037;51.068;13.780;2023-09-18T08:15:16;31.60;1.00
6018;DHT22;3037;51.068;13.780;2023-09-18T08:17:42;31.50;1.00
6018;DHT22;3037;51.068;13.780;2023-09-18T08:20:09;31.30;1.00
6018;DHT22;3037;51.068;13.780;2023-09-18T08:22:38;32.40;1.00
6018;DHT22;3037;51.068;13.780;2023-09-18T08:25:05;32.20;1.00
6018;DHT22;3037;51.068;13.780;2023-09-18T08:27:33;32.70;1.00
6018;DHT22;3037;51.068;13.780;2023-09-18T08:29:59;32.20;1.00
6018;DHT22;3037;51.068;13.780;2023-09-18T08:32:24;32.80;1.00
6018;DHT22;3037;51.068;13.780;2023-09-18T08:34:50;33.10;1.00
6018;DHT22;3037;51.068;13.780;2023-09-18T08:37:15;33.60;1.00
6018;DHT22;3037;51.068;13.780;2023-09-18T08:39:41;33.00;1.00
6018;DHT22;3037;51.068;13.780;2023-09-18T08:42:09;32.00;1.00
6018;DHT22;3037;51.068;13.780;2023-09-18T08:44:38;32.80;1.00
6018;DHT22;3037;51.068;13.780;2023-09-18T08:47:06;33.50;1.00
6018;DHT22;3037;51.068;13.780;2023-09-18T08:49:34;33.20;1.00
6018;DHT22;3037;51.068;13.780;2023-09-18T08:52:00;32.90;1.00
6018;DHT22;3037;51.068;13.780;2023-09-18T08:54:26;33.50;1.00
6018;DHT22;3037;51.068;13.780;2023-09-18T08:56:54;33.60;1.00
6018;DHT22;3037;51.068;13.780;2023-09-18T08:59:21;34.30;1.00
6018;DHT22;3037;51.068;13.780;2023-09-18T09:01:47;34.20;1.00
6018;DHT22;3037;51.068;13.780;2023-09-18T09:04:13;33.40;1.00
6018;DHT22;3037;51.068;13.780;2023-09-18T09:06:38;33.30;1.00
6018;DHT22;3037;51.068;13.780;2023-09-18T09:09:04;32.80;1.00
6018;DHT22;3037;51.068;13.780;2023-09-18T09:11:30;33.60;1.00
6018;DHT22;3037;51.068;13.780;2023-09-18T09:14:12;33.60;1.00
6018;DHT22;3037;51.068;13.780;2023-09-18T09:16:50;33.80;1.00
6018;DHT22;3037;51.068;13.780;2023-09-18T09:19:20;32.60;1.00
6018;DHT22;3037;51.068;13.780;2023-09-18T09:21:53;32.60;1.00
6018;DHT22;3037;51.068;13.780;2023-09-18T09:24:36;30.90;1.00
6018;DHT22;3037;51.068;13.780;2023-09-18T09:27:02;30.70;1.00
6018;DHT22;3037;51.068;13.780;2023-09-18T09:29:28;30.70;1.00
6018;DHT22;3037;51.068;13.780;2023-09-18T09:31:55;30.40;1.00
6018;DHT22;3037;51.068;13.780;2023-09-18T09:34:27;30.00;1.00
6018;DHT22;3037;51.068;13.780;2023-09-18T09:36:55;30.10;1.00
6018;DHT22;3037;51.068;13.780;2023-09-18T09:39:22;29.80;1.00
6018;DHT22;3037;51.068;13.780;2023-09-18T09:41:51;29.10;1.00
6018;DHT22;3037;51.068;13.780;2023-09-18T09:44:17;28.90;1.00
6018;DHT22;3037;51.068;13.780;2023-09-18T09:46:47;29.50;1.00
6018;DHT22;3037;51.068;13.780;2023-09-18T09:49:13;29.40;1.00
6018;DHT22;3037;51.068;13.780;2023-09-18T09:51:41;29.40;1.00
6018;DHT22;3037;51.068;13.780;2023-09-18T09:54:07;28.70;1.00
6018;DHT22;3037;51.068;13.780;2023-09-18T09:59:05;28.80;1.00
6018;DHT22;3037;51.068;13.780;2023-09-18T10:01:34;29.00;1.00
6018;DHT22;3037;51.068;13.780;2023-09-18T10:04:05;29.20;1.00
6018;DHT22;3037;51.068;13.780;2023-09-18T10:06:34;29.20;1.00
6018;DHT22;3037;51.068;13.780;2023-09-18T10:09:04;29.20;1.00
6018;DHT22;3037;51.068;13.780;2023-09-18T10:11:33;29.70;1.00
6018;DHT22;3037;51.068;13.780;2023-09-18T10:14:10;29.90;1.00
6018;DHT22;3037;51.068;13.780;2023-09-18T10:16:40;30.50;1.00
6018;DHT22;3037;51.068;13.780;2023-09-18T10:19:21;29.60;1.00
6018;DHT22;3037;51.068;13.780;2023-09-18T10:22:20;29.50;1.00
6018;DHT22;3037;51.068;13.780;2023-09-18T10:24:50;29.80;1.00
6018;DHT22;3037;51.068;13.780;2023-09-18T10:27:18;31.10;1.00
6018;DHT22;3037;51.068;13.780;2023-09-18T10:29:49;31.10;1.00
6018;DHT22;3037;51.068;13.780;2023-09-18T10:32:14;31.10;1.00
6018;DHT22;3037;51.068;13.780;2023-09-18T10:34:41;32.20;1.00
6018;DHT22;3037;51.068;13.780;2023-09-18T10:37:10;32.00;1.00
6018;DHT22;3037;51.068;13.780;2023-09-18T10:39:38;31.90;1.00
6018;DHT22;3037;51.068;13.780;2023-09-18T10:42:07;31.90;1.00
6018;DHT22;3037;51.068;13.780;2023-09-18T10:44:34;33.70;1.00
6018;DHT22;3037;51.068;13.780;2023-09-18T10:47:02;33.10;1.00
6018;DHT22;3037;51.068;13.780;2023-09-18T10:49:30;31.80;1.00
6018;DHT22;3037;51.068;13.780;2023-09-18T10:51:56;32.00;1.00
6018;DHT22;3037;51.068;13.780;2023-09-18T10:54:23;32.40;1.00
6018;DHT22;3037;51.068;13.780;2023-09-18T10:56:51;31.30;1.00
6018;DHT22;3037;51.068;13.780;2023-09-18T10:59:16;30.70;1.00
6018;DHT22;3037;51.068;13.780;2023-09-18T11:01:43;29.50;1.00
6018;DHT22;3037;51.068;13.780;2023-09-18T11:04:09;29.30;1.00
6018;DHT22;3037;51.068;13.780;2023-09-18T11:14:48;28.20;1.00
6018;DHT22;3037;51.068;13.780;2023-09-18T11:17:37;27.90;1.00
6018;DHT22;3037;51.068;13.780;2023-09-18T11:20:04;27.60;1.00
6018;DHT22;3037;51.068;13.780;2023-09-18T11:22:35;27.60;1.00
6018;DHT22;3037;51.068;13.780;2023-09-18T11:28:01;27.90;1.00
6018;DHT22;3037;51.068;13.780;2023-09-18T11:30:28;27.90;1.00
6018;DHT22;3037;51.068;13.780;2023-09-18T11:32:54;27.70;1.00
6018;DHT22;3037;51.068;13.780;2023-09-18T11:35:21;28.30;1.00
6018;DHT22;3037;51.068;13.780;2023-09-18T11:37:47;28.20;1.00
6018;DHT22;3037;51.068;13.780;2023-09-18T11:40:36;28.40;1.00
6018;DHT22;3037;51.068;13.780;2023-09-18T11:43:23;28.50;1.00
6018;DHT22;3037;51.068;13.780;2023-09-18T11:46:00;28.60;1.00
6018;DHT22;3037;51.068;13.780;2023-09-18T11:48:29;28.60;1.00
6018;DHT22;3037;51.068;13.780;2023-09-18T11:51:00;28.60;1.00
6018;DHT22;3037;51.068;13.780;2023-09-18T11:53:28;28.80;1.00
6018;DHT22;3037;51.068;13.780;2023-09-18T11:55:54;28.90;1.00
6018;DHT22;3037;51.068;13.780;2023-09-18T11:58:21;29.00;1.00
6018;DHT22;3037;51.068;13.780;2023-09-18T12:00:49;29.10;1.00
6018;DHT22;3037;51.068;13.780;2023-09-18T12:05:58;28.30;1.00
6018;DHT22;3037;51.068;13.780;2023-09-18T12:08:25;28.60;1.00
6018;DHT22;3037;51.068;13.780;2023-09-18T12:10:54;29.20;1.00
6018;DHT22;3037;51.068;13.780;2023-09-18T12:13:20;29.30;1.00
6018;DHT22;3037;51.068;13.780;2023-09-18T12:15:48;29.80;1.00
6018;DHT22;3037;51.068;13.780;2023-09-18T12:18:15;29.30;1.00
6018;DHT22;3037;51.068;13.780;2023-09-18T12:20:48;29.50;1.00
6018;DHT22;3037;51.068;13.780;2023-09-18T12:23:17;30.00;1.00
6018;DHT22;3037;51.068;13.780;2023-09-18T12:25:50;29.60;1.00
6018;DHT22;3037;51.068;13.780;2023-09-18T12:28:17;29.40;1.00
6018;DHT22;3037;51.068;13.780;2023-09-18T12:30:43;29.80;1.00
6018;DHT22;3037;51.068;13.780;2023-09-18T12:33:12;29.60;1.00
6018;DHT22;3037;51.068;13.780;2023-09-18T12:35:40;29.70;1.00
6018;DHT22;3037;51.068;13.780;2023-09-18T12:38:14;29.40;1.00
6018;DHT22;3037;51.068;13.780;2023-09-18T12:40:40;28.80;1.00
6018;DHT22;3037;51.068;13.780;2023-09-18T12:43:06;28.60;1.00
6018;DHT22;3037;51.068;13.780;2023-09-18T12:45:31;28.80;1.00
6018;DHT22;3037;51.068;13.780;2023-09-18T12:47:58;29.30;1.00
6018;DHT22;3037;51.068;13.780;2023-09-18T12:50:25;29.00;1.00
6018;DHT22;3037;51.068;13.780;2023-09-18T12:52:51;29.00;1.00
6018;DHT22;3037;51.068;13.780;2023-09-18T12:55:26;29.50;1.00
6018;DHT22;3037;51.068;13.780;2023-09-18T12:57:53;29.80;1.00
6018;DHT22;3037;51.068;13.780;2023-09-18T13:00:19;29.30;1.00
6018;DHT22;3037;51.068;13.780;2023-09-18T13:02:48;29.20;1.00
6018;DHT22;3037;51.068;13.780;2023-09-18T13:05:19;29.30;1.00
6018;DHT22;3037;51.068;13.780;2023-09-18T13:07:45;29.30;1.00
6018;DHT22;3037;51.068;13.780;2023-09-18T13:10:13;29.20;1.00
6018;DHT22;3037;51.068;13.780;2023-09-18T13:12:45;29.00;1.00
6018;DHT22;3037;51.068;13.780;2023-09-18T13:15:11;28.90;1.00
6018;DHT22;3037;51.068;13.780;2023-09-18T13:17:45;29.20;1.00
6018;DHT22;3037;51.068;13.780;2023-09-18T13:20:18;29.20;1.00
6018;DHT22;3037;51.068;13.780;2023-09-18T13:22:48;29.20;1.00
6018;DHT22;3037;51.068;13.780;2023-09-18T13:25:23;29.10;1.00
6018;DHT22;3037;51.068;13.780;2023-09-18T13:27:50;29.30;1.00
6018;DHT22;3037;51.068;13.780;2023-09-18T13:30:17;29.50;1.00
6018;DHT22;3037;51.068;13.780;2023-09-18T13:32:44;29.60;1.00
6018;DHT22;3037;51.068;13.780;2023-09-18T13:35:10;29.50;1.00
6018;DHT22;3037;51.068;13.780;2023-09-18T13:37:38;29.50;1.00
6018;DHT22;3037;51.068;13.780;2023-09-18T13:40:04;29.50;1.00
6018;DHT22;3037;51.068;13.780;2023-09-18T13:42:34;29.40;1.00
6018;DHT22;3037;51.068;13.780;2023-09-18T13:45:00;29.50;1.00
6018;DHT22;3037;51.068;13.780;2023-09-18T13:47:27;29.30;1.00
6018;DHT22;3037;51.068;13.780;2023-09-18T13:49:53;29.30;1.00
6018;DHT22;3037;51.068;13.780;2023-09-18T13:52:23;29.50;1.00
6018;DHT22;3037;51.068;13.780;2023-09-18T13:54:48;29.20;1.00
6018;DHT22;3037;51.068;13.780;2023-09-18T13:57:17;29.00;1.00
6018;DHT22;3037;51.068;13.780;2023-09-18T13:59:46;29.10;1.00
6018;DHT22;3037;51.068;13.780;2023-09-18T14:02:14;28.80;1.00
6018;DHT22;3037;51.068;13.780;2023-09-18T14:04:40;28.70;1.00
6018;DHT22;3037;51.068;13.780;2023-09-18T14:07:09;28.70;1.00
6018;DHT22;3037;51.068;13.780;2023-09-18T14:09:36;28.60;1.00
6018;DHT22;3037;51.068;13.780;2023-09-18T14:12:02;28.30;1.00
6018;DHT22;3037;51.068;13.780;2023-09-18T14:14:32;28.30;1.00
6018;DHT22;3037;51.068;13.780;2023-09-18T14:16:58;28.10;1.00
6018;DHT22;3037;51.068;13.780;2023-09-18T14:19:24;28.00;1.00
6018;DHT22;3037;51.068;13.780;2023-09-18T14:21:49;27.80;1.00
6018;DHT22;3037;51.068;13.780;2023-09-18T14:24:16;27.80;1.00
6018;DHT22;3037;51.068;13.780;2023-09-18T14:26:50;27.70;1.00
6018;DHT22;3037;51.068;13.780;2023-09-18T14:29:15;27.80;1.00
6018;DHT22;3037;51.068;13.780;2023-09-18T14:31:42;28.30;1.00
6018;DHT22;3037;51.068;13.780;2023-09-18T14:34:08;28.50;1.00
6018;DHT22;3037;51.068;13.780;2023-09-18T14:36:34;28.70;1.00
6018;DHT22;3037;51.068;13.780;2023-09-18T14:39:00;28.80;1.00
6018;DHT22;3037;51.068;13.780;2023-09-18T14:41:26;28.80;1.00
6018;DHT22;3037;51.068;13.780;2023-09-18T14:43:52;28.70;1.00
6018;DHT22;3037;51.068;13.780;2023-09-18T14:46:18;28.60;1.00
6018;DHT22;3037;51.068;13.780;2023-09-18T14:48:44;28.40;1.00
6018;DHT22;3037;51.068;13.780;2023-09-18T14:51:09;28.40;1.00
6018;DHT22;3037;51.068;13.780;2023-09-18T14:53:35;28.40;1.00
6018;DHT22;3037;51.068;13.780;2023-09-18T14:56:01;28.40;1.00
6018;DHT22;3037;51.068;13.780;2023-09-18T14:58:26;28.60;1.00
6018;DHT22;3037;51.068;13.780;2023-09-18T15:00:53;28.80;1.00
6018;DHT22;3037;51.068;13.780;2023-09-18T15:03:19;28.80;1.00
6018;DHT22;3037;51.068;13.780;2023-09-18T15:05:44;28.70;1.00
6018;DHT22;3037;51.068;13.780;2023-09-18T15:08:10;28.40;1.00
6018;DHT22;3037;51.068;13.780;2023-09-18T15:10:37;28.40;1.00
6018;DHT22;3037;51.068;13.780;2023-09-18T15:13:02;28.30;1.00
6018;DHT22;3037;51.068;13.780;2023-09-18T15:15:28;28.30;1.00
6018;DHT22;3037;51.068;13.780;2023-09-18T15:17:54;28.30;1.00
6018;DHT22;3037;51.068;13.780;2023-09-18T15:20:20;28.20;1.00
6018;DHT22;3037;51.068;13.780;2023-09-18T15:22:49;28.00;1.00
6018;DHT22;3037;51.068;13.780;2023-09-18T15:25:15;27.90;1.00
6018;DHT22;3037;51.068;13.780;2023-09-18T15:27:41;27.80;1.00
6018;DHT22;3037;51.068;13.780;2023-09-18T15:30:07;27.50;1.00
6018;DHT22;3037;51.068;13.780;2023-09-18T15:32:50;27.50;1.00
6018;DHT22;3037;51.068;13.780;2023-09-18T15:35:16;27.20;1.00
6018;DHT22;3037;51.068;13.780;2023-09-18T15:37:42;27.20;1.00
6018;DHT22;3037;51.068;13.780;2023-09-18T15:40:09;27.00;1.00
6018;DHT22;3037;51.068;13.780;2023-09-18T15:42:36;26.80;1.00
6018;DHT22;3037;51.068;13.780;2023-09-18T15:45:06;26.60;1.00
6018;DHT22;3037;51.068;13.780;2023-09-18T15:47:32;26.40;1.00
6018;DHT22;3037;51.068;13.780;2023-09-18T15:49:57;26.20;1.00
6018;DHT22;3037;51.068;13.780;2023-09-18T15:52:23;26.10;1.00
6018;DHT22;3037;51.068;13.780;2023-09-18T15:54:49;25.90;1.00
6018;DHT22;3037;51.068;13.780;2023-09-18T15:57:14;25.90;1.00
6018;DHT22;3037;51.068;13.780;2023-09-18T15:59:40;25.80;1.00
6018;DHT22;3037;51.068;13.780;2023-09-18T16:02:05;25.70;1.00
6018;DHT22;3037;51.068;13.780;2023-09-18T16:04:32;25.70;1.00
6018;DHT22;3037;51.068;13.780;2023-09-18T16:06:58;25.60;1.00
6018;DHT22;3037;51.068;13.780;2023-09-18T16:09:24;25.50;1.00
6018;DHT22;3037;51.068;13.780;2023-09-18T16:11:49;25.50;1.00
6018;DHT22;3037;51.068;13.780;2023-09-18T16:14:15;25.40;1.00
6018;DHT22;3037;51.068;13.780;2023-09-18T16:16:45;25.20;1.00